createdAt,value
2022-10-18T00:02:06.627Z,94.34
2022-10-18T00:04:37.481Z,94.16
2022-10-18T00:07:09.689Z,93.81
2022-10-18T00:09:39.273Z,94.28
2022-10-18T00:12:08.960Z,94.06
2022-10-18T00:14:38.519Z,94.19
2022-10-18T00:17:08.080Z,94.04
2022-10-18T00:19:37.669Z,94.21
2022-10-18T00:22:09.827Z,94.06
2022-10-18T00:24:39.346Z,93.99
2022-10-18T00:27:09.364Z,94.16
2022-10-18T00:29:38.904Z,94.00
2022-10-18T00:32:08.732Z,94.29
2022-10-18T00:34:38.692Z,93.84
2022-10-18T00:37:10.823Z,93.88
2022-10-18T00:39:40.416Z,93.96
2022-10-18T00:42:09.991Z,94.46
2022-10-18T00:45:24.588Z,94.02
2022-10-18T00:47:57.605Z,94.15
2022-10-18T00:50:28.296Z,94.32
2022-10-18T00:53:02.584Z,94.11
2022-10-18T00:55:34.368Z,94.22
2022-10-18T00:58:04.646Z,94.15
2022-10-18T01:00:38.721Z,94.28
2022-10-18T01:03:08.617Z,94.34
2022-10-18T01:05:49.380Z,94.31
2022-10-18T01:08:34.006Z,94.31
2022-10-18T01:11:12.807Z,94.57
2022-10-18T01:13:59.872Z,94.73
2022-10-18T01:16:42.194Z,94.25
2022-10-18T01:19:29.680Z,94.46
2022-10-18T01:22:03.613Z,94.61
2022-10-18T01:24:48.891Z,94.64
2022-10-18T01:27:43.280Z,94.41
2022-10-18T01:30:35.407Z,94.47
2022-10-18T01:33:08.717Z,94.45
2022-10-18T01:35:43.923Z,94.40
2022-10-18T01:38:17.176Z,94.48
2022-10-18T01:40:49.251Z,94.82
2022-10-18T01:43:20.179Z,94.72
2022-10-18T01:45:52.728Z,94.76
2022-10-18T01:48:23.216Z,94.75
2022-10-18T01:50:52.786Z,94.98
2022-10-18T01:53:27.890Z,94.77
2022-10-18T01:56:04.442Z,94.84
2022-10-18T01:58:41.203Z,94.85
2022-10-18T02:01:20.000Z,94.86
2022-10-18T02:03:51.338Z,94.69
2022-10-18T02:06:23.759Z,94.83
2022-10-18T02:08:56.594Z,94.67
2022-10-18T02:11:26.312Z,94.44
2022-10-18T02:13:57.942Z,94.53
2022-10-18T02:16:33.666Z,94.31
2022-10-18T02:19:04.968Z,94.46
2022-10-18T02:21:35.279Z,94.35
2022-10-18T02:24:05.488Z,94.38
2022-10-18T02:26:35.289Z,94.14
2022-10-18T02:29:04.867Z,94.44
2022-10-18T02:31:39.924Z,94.42
2022-10-18T02:34:13.772Z,94.26
2022-10-18T02:36:46.355Z,94.25
2022-10-18T02:39:18.996Z,94.54
2022-10-18T02:41:48.568Z,94.21
2022-10-18T02:44:18.240Z,94.42
2022-10-18T02:46:50.902Z,94.12
2022-10-18T02:49:20.468Z,94.38
2022-10-18T02:51:50.052Z,94.28
2022-10-18T02:54:19.618Z,94.33
2022-10-18T02:56:49.171Z,94.32
2022-10-18T02:59:19.069Z,94.19
2022-10-18T03:01:51.266Z,94.46
2022-10-18T03:04:21.166Z,94.24
2022-10-18T03:06:50.741Z,94.39
2022-10-18T03:09:20.760Z,94.25
2022-10-18T03:11:50.349Z,94.01
2022-10-18T03:14:19.905Z,94.08
2022-10-18T03:16:52.082Z,93.89
2022-10-18T03:19:21.619Z,94.18
2022-10-18T03:21:51.180Z,93.89
2022-10-18T03:24:20.884Z,94.05
2022-10-18T03:26:50.438Z,93.65
2022-10-18T03:29:20.039Z,93.98
2022-10-18T03:31:52.187Z,93.65
2022-10-18T03:34:21.715Z,93.73
2022-10-18T03:36:51.268Z,93.44
2022-10-18T03:39:20.846Z,93.36
2022-10-18T03:41:50.650Z,93.55
2022-10-18T03:44:20.190Z,93.27
2022-10-18T03:46:52.366Z,93.34
2022-10-18T03:49:22.008Z,93.10
2022-10-18T03:51:52.067Z,93.24
2022-10-18T03:54:21.706Z,93.44
2022-10-18T03:56:51.765Z,93.31
2022-10-18T03:59:22.416Z,93.57
2022-10-18T04:01:54.653Z,93.44
2022-10-18T04:04:24.413Z,93.64
2022-10-18T04:06:54.143Z,93.69
2022-10-18T04:09:23.750Z,93.53
2022-10-18T04:11:53.427Z,93.62
2022-10-18T04:14:23.731Z,93.72
2022-10-18T04:16:55.874Z,93.60
2022-10-18T04:19:25.452Z,93.38
2022-10-18T04:21:55.024Z,93.52
2022-10-18T04:24:24.748Z,93.21
2022-10-18T04:26:54.373Z,93.42
2022-10-18T04:29:24.134Z,93.68
2022-10-18T04:31:56.288Z,93.42
2022-10-18T04:34:26.086Z,93.40
2022-10-18T04:36:55.667Z,93.37
2022-10-18T04:39:25.213Z,93.68
2022-10-18T04:41:54.786Z,93.43
2022-10-18T04:44:24.557Z,93.76
2022-10-18T04:46:57.157Z,93.85
2022-10-18T04:49:26.730Z,93.60
2022-10-18T04:51:56.325Z,93.35
2022-10-18T04:54:28.520Z,93.39
2022-10-18T04:56:58.442Z,93.45
2022-10-18T04:59:28.084Z,93.13
2022-10-18T05:02:00.754Z,93.34
2022-10-18T05:04:30.385Z,93.33
2022-10-18T05:06:59.985Z,93.02
2022-10-18T05:09:29.590Z,93.35
2022-10-18T05:11:59.230Z,93.03
2022-10-18T05:14:28.826Z,92.83
2022-10-18T05:17:00.960Z,93.00
2022-10-18T05:19:30.549Z,93.11
2022-10-18T05:22:00.165Z,93.01
2022-10-18T05:24:29.953Z,92.93
2022-10-18T05:26:59.754Z,93.35
2022-10-18T05:29:29.585Z,93.09
2022-10-18T05:32:01.794Z,93.06
2022-10-18T05:34:32.042Z,93.08
2022-10-18T05:37:02.524Z,93.17
2022-10-18T05:39:32.133Z,92.81
2022-10-18T05:42:02.458Z,92.82
2022-10-18T05:44:32.052Z,92.53
2022-10-18T05:47:04.249Z,92.85
2022-10-18T05:49:33.816Z,92.58
2022-10-18T05:52:03.409Z,92.80
2022-10-18T05:54:32.972Z,92.55
2022-10-18T05:57:02.609Z,93.02
2022-10-18T05:59:32.182Z,92.57
2022-10-18T06:02:04.338Z,92.55
2022-10-18T06:04:34.838Z,92.79
2022-10-18T06:07:04.425Z,92.83
2022-10-18T06:09:33.956Z,92.82
2022-10-18T06:12:03.582Z,92.76
2022-10-18T06:14:33.523Z,92.71
2022-10-18T06:17:06.113Z,92.45
2022-10-18T06:19:35.804Z,92.70
2022-10-18T06:22:05.387Z,92.59
2022-10-18T06:24:34.968Z,92.82
2022-10-18T06:27:08.952Z,92.68
2022-10-18T06:29:38.754Z,92.37
2022-10-18T06:32:11.476Z,92.85
2022-10-18T06:34:41.026Z,92.62
2022-10-18T06:37:10.691Z,92.39
2022-10-18T06:39:41.018Z,92.89
2022-10-18T06:42:10.928Z,92.50
2022-10-18T06:44:41.258Z,92.61
2022-10-18T06:47:13.395Z,92.80
2022-10-18T06:49:42.951Z,92.70
2022-10-18T06:52:12.530Z,92.69
2022-10-18T06:54:44.208Z,92.65
2022-10-18T06:57:14.826Z,92.91
2022-10-18T06:59:44.375Z,92.69
2022-10-18T07:02:19.064Z,93.01
2022-10-18T07:04:48.626Z,92.74
2022-10-18T07:07:18.182Z,92.91
2022-10-18T07:09:47.926Z,92.98
2022-10-18T07:12:17.859Z,92.97
2022-10-18T07:14:48.818Z,92.87
2022-10-18T07:17:21.003Z,92.48
2022-10-18T07:19:50.532Z,92.64
2022-10-18T07:22:20.080Z,92.83
2022-10-18T07:24:49.632Z,92.50
2022-10-18T07:27:19.176Z,92.58
2022-10-18T07:29:49.700Z,92.40
2022-10-18T07:32:21.897Z,92.27
2022-10-18T07:34:51.748Z,92.65
2022-10-18T07:37:21.839Z,92.57
2022-10-18T07:39:53.100Z,92.19
2022-10-18T07:42:22.821Z,92.10
2022-10-18T07:44:52.388Z,92.06
2022-10-18T07:47:24.547Z,92.08
2022-10-18T07:49:54.098Z,92.05
2022-10-18T07:52:23.658Z,92.18
2022-10-18T07:54:53.257Z,91.49
2022-10-18T07:57:23.435Z,91.26
2022-10-18T07:59:56.881Z,91.56
2022-10-18T08:02:29.053Z,91.03
2022-10-18T08:04:58.687Z,91.13
2022-10-18T08:07:28.316Z,90.44
2022-10-18T08:09:57.836Z,90.71
2022-10-18T08:12:27.470Z,90.10
2022-10-18T08:14:57.049Z,90.16
2022-10-18T08:17:29.258Z,90.25
2022-10-18T08:20:11.867Z,89.84
2022-10-18T08:22:48.471Z,89.79
2022-10-18T08:25:18.213Z,89.65
2022-10-18T08:27:47.827Z,89.90
2022-10-18T08:30:17.706Z,89.37
2022-10-18T08:32:49.831Z,89.75
2022-10-18T08:35:19.524Z,89.72
2022-10-18T08:37:49.111Z,89.46
2022-10-18T08:40:18.986Z,89.39
2022-10-18T08:43:03.127Z,89.38
2022-10-18T08:45:47.415Z,89.36
2022-10-18T08:48:24.656Z,89.54
2022-10-18T08:50:54.754Z,89.45
2022-10-18T08:53:29.299Z,89.37
2022-10-18T08:56:05.546Z,89.65
2022-10-18T08:58:36.089Z,89.85
2022-10-18T09:01:11.446Z,89.89
2022-10-18T09:03:59.134Z,90.01
2022-10-18T09:06:33.600Z,89.46
2022-10-18T09:09:14.432Z,89.45
2022-10-18T09:11:52.680Z,89.54
2022-10-18T09:14:48.109Z,89.79
2022-10-18T09:17:22.710Z,89.83
2022-10-18T09:20:06.639Z,89.63
2022-10-18T09:22:46.184Z,89.60
2022-10-18T09:25:20.779Z,89.68
2022-10-18T09:27:55.833Z,89.81
2022-10-18T09:30:35.173Z,89.57
2022-10-18T09:33:15.849Z,89.72
2022-10-18T09:35:52.349Z,89.53
2022-10-18T09:41:19.647Z,89.14
2022-10-18T09:43:53.622Z,89.35
2022-10-18T09:46:23.118Z,89.32
2022-10-18T09:48:54.590Z,88.79
2022-10-18T09:51:29.024Z,88.49
2022-10-18T09:54:06.699Z,88.12
2022-10-18T09:56:41.941Z,87.87
2022-10-18T09:59:30.304Z,86.77
2022-10-18T10:01:59.824Z,85.34
2022-10-18T10:04:29.675Z,85.01
2022-10-18T10:07:04.000Z,83.85
2022-10-18T10:09:39.164Z,82.40
2022-10-18T10:12:08.767Z,80.79
2022-10-18T10:14:46.710Z,79.75
2022-10-18T10:17:27.498Z,79.39
2022-10-18T10:20:00.349Z,78.91
2022-10-18T10:22:40.523Z,78.64
2022-10-18T10:25:10.673Z,78.41
2022-10-18T10:27:43.655Z,78.28
2022-10-18T10:30:25.863Z,78.04
2022-10-18T10:32:56.423Z,78.49
2022-10-18T10:35:52.582Z,78.15
2022-10-18T10:38:30.609Z,78.32
2022-10-18T10:41:00.571Z,78.56
2022-10-18T10:43:37.641Z,78.75
2022-10-18T10:46:10.704Z,78.81
2022-10-18T10:48:48.964Z,78.79
2022-10-18T10:51:20.251Z,78.04
2022-10-18T10:53:59.525Z,78.21
2022-10-18T10:56:30.815Z,77.50
2022-10-18T10:59:09.043Z,76.95
2022-10-18T11:01:39.165Z,77.36
2022-10-18T11:04:27.773Z,76.81
2022-10-18T11:07:04.133Z,77.25
2022-10-18T11:09:51.813Z,76.47
2022-10-18T11:12:29.962Z,77.23
2022-10-18T11:15:10.000Z,77.30
2022-10-18T11:17:45.238Z,77.10
2022-10-18T11:20:21.132Z,77.00
2022-10-18T11:23:01.222Z,77.84
2022-10-18T11:25:54.187Z,77.48
2022-10-18T11:28:35.033Z,77.89
2022-10-18T11:31:15.505Z,77.05
2022-10-18T11:34:08.600Z,76.26
2022-10-18T11:36:50.473Z,75.23
2022-10-18T11:39:33.195Z,74.75
2022-10-18T11:42:11.072Z,74.09
2022-10-18T11:44:45.219Z,73.89
2022-10-18T11:47:19.676Z,73.85
2022-10-18T11:49:57.930Z,73.49
2022-10-18T11:52:34.132Z,73.81
2022-10-18T11:55:33.924Z,73.80
2022-10-18T11:58:14.543Z,73.66
2022-10-18T12:00:49.816Z,73.93
2022-10-18T12:03:36.521Z,74.05
2022-10-18T12:06:09.150Z,73.88
2022-10-18T12:08:41.922Z,74.13
2022-10-18T12:11:16.325Z,73.92
2022-10-18T12:13:50.954Z,73.74
2022-10-18T12:16:38.839Z,74.20
2022-10-18T12:19:22.121Z,74.06
2022-10-18T12:21:55.631Z,73.66
2022-10-18T12:24:28.283Z,72.99
2022-10-18T12:27:01.473Z,72.62
2022-10-18T12:29:40.011Z,71.85
2022-10-18T12:32:12.662Z,72.36
2022-10-18T12:34:45.592Z,72.51
2022-10-18T12:37:45.633Z,71.83
2022-10-18T12:40:21.316Z,71.52
2022-10-18T12:42:52.606Z,71.18
2022-10-18T12:45:33.442Z,70.19
2022-10-18T12:48:04.051Z,69.46
2022-10-18T12:50:37.539Z,68.48
2022-10-18T12:53:22.971Z,68.00
2022-10-18T12:55:54.126Z,67.41
2022-10-18T12:58:34.474Z,67.14
2022-10-18T13:01:09.446Z,66.96
2022-10-18T13:03:55.766Z,66.84
2022-10-18T13:06:26.362Z,66.74
2022-10-18T13:09:21.405Z,67.03
2022-10-18T13:11:51.041Z,66.73
2022-10-18T13:14:59.154Z,66.05
2022-10-18T13:17:44.101Z,66.91
2022-10-18T13:20:27.208Z,66.91
2022-10-18T13:23:04.978Z,67.16
2022-10-18T13:25:39.533Z,66.94
2022-10-18T13:28:21.725Z,66.66
2022-10-18T13:30:56.773Z,66.18
2022-10-18T13:33:34.738Z,65.57
2022-10-18T13:36:06.431Z,65.35
2022-10-18T13:38:40.965Z,64.62
2022-10-18T13:41:12.285Z,65.21
2022-10-18T13:44:12.617Z,65.53
2022-10-18T13:47:21.337Z,65.68
2022-10-18T13:50:06.175Z,66.66
2022-10-18T13:52:50.875Z,67.02
2022-10-18T13:55:40.948Z,66.75
2022-10-18T13:58:14.634Z,66.68
2022-10-18T14:00:55.335Z,67.12
2022-10-18T14:03:58.374Z,67.11
2022-10-18T14:06:35.808Z,67.08
2022-10-18T14:09:19.558Z,67.00
2022-10-18T14:11:57.809Z,66.63
2022-10-18T14:14:34.366Z,66.21
2022-10-18T14:17:18.840Z,65.54
2022-10-18T14:19:51.989Z,65.48
2022-10-18T14:22:25.814Z,65.26
2022-10-18T14:24:55.746Z,65.02
2022-10-18T14:27:27.690Z,66.11
2022-10-18T14:30:11.718Z,65.89
2022-10-18T14:32:45.903Z,66.33
2022-10-18T14:35:32.083Z,66.75
2022-10-18T14:38:05.360Z,67.17
2022-10-18T14:40:38.156Z,67.23
2022-10-18T14:43:11.990Z,67.87
2022-10-18T14:45:41.777Z,67.80
2022-10-18T14:48:17.650Z,68.43
2022-10-18T14:50:49.893Z,68.63
2022-10-18T14:53:25.197Z,69.29
2022-10-18T14:56:00.734Z,69.35
2022-10-18T14:58:30.414Z,69.71
2022-10-18T15:01:00.351Z,69.96
2022-10-18T15:03:30.526Z,70.04
2022-10-18T15:06:02.084Z,70.20
2022-10-18T15:08:43.910Z,70.73
2022-10-18T15:11:14.887Z,71.41
2022-10-18T15:13:49.669Z,71.71
2022-10-18T15:16:20.590Z,72.28
2022-10-18T15:19:04.054Z,72.35
2022-10-18T15:21:33.962Z,72.45
2022-10-18T15:24:24.787Z,72.81
2022-10-18T15:26:54.497Z,73.30
2022-10-18T15:29:24.964Z,73.65
2022-10-18T15:31:55.089Z,73.84
2022-10-18T15:34:26.049Z,73.88
2022-10-18T15:36:58.823Z,73.95
2022-10-18T15:39:32.992Z,74.43
2022-10-18T15:42:04.016Z,74.52
2022-10-18T15:44:36.434Z,74.89
2022-10-18T15:47:21.696Z,75.13
2022-10-18T15:49:56.974Z,74.99
2022-10-18T15:52:39.341Z,75.71
2022-10-18T15:55:39.138Z,75.42
2022-10-18T15:58:15.547Z,75.92
2022-10-18T16:00:45.565Z,75.93
2022-10-18T16:03:15.212Z,76.25
2022-10-18T16:05:44.988Z,76.91
2022-10-18T16:08:22.751Z,77.48
2022-10-18T16:10:52.385Z,77.63
2022-10-18T16:13:24.524Z,78.16
2022-10-18T16:15:55.700Z,78.31
2022-10-18T16:18:26.084Z,78.65
2022-10-18T16:20:56.030Z,78.66
2022-10-18T16:23:28.585Z,79.26
2022-10-18T16:25:58.380Z,79.36
2022-10-18T16:28:31.891Z,79.44
2022-10-18T16:31:03.849Z,79.86
2022-10-18T16:33:33.633Z,80.05
2022-10-18T16:36:04.609Z,80.00
2022-10-18T16:38:36.171Z,80.11
2022-10-18T16:41:06.454Z,80.15
2022-10-18T16:43:39.625Z,80.28
2022-10-18T16:46:10.020Z,80.78
2022-10-18T16:48:39.573Z,81.04
2022-10-18T16:51:09.444Z,81.01
2022-10-18T16:53:39.099Z,80.94
2022-10-18T16:56:13.629Z,81.13
2022-10-18T16:58:46.122Z,81.38
2022-10-18T17:01:16.727Z,81.50
2022-10-18T17:03:47.241Z,81.82
2022-10-18T17:06:18.447Z,81.94
2022-10-18T17:08:50.053Z,81.81
2022-10-18T17:11:20.487Z,82.11
2022-10-18T17:13:52.632Z,82.27
2022-10-18T17:19:16.626Z,82.54
2022-10-18T17:21:46.169Z,82.79
2022-10-18T17:24:16.213Z,83.13
2022-10-18T17:26:46.413Z,83.75
2022-10-18T17:29:21.235Z,84.04
2022-10-18T17:31:50.814Z,84.43
2022-10-18T17:34:21.597Z,84.80
2022-10-18T17:36:51.258Z,84.97
2022-10-18T17:39:20.881Z,85.49
2022-10-18T17:41:50.650Z,85.85
2022-10-18T17:44:22.812Z,86.07
2022-10-18T17:46:52.866Z,86.19
2022-10-18T17:49:22.458Z,86.48
2022-10-18T17:51:52.176Z,86.80
2022-10-18T17:54:21.777Z,87.13
2022-10-18T17:56:53.888Z,87.17
2022-10-18T17:59:26.794Z,87.42
2022-10-18T18:01:56.398Z,87.30
2022-10-18T18:04:26.057Z,87.41
2022-10-18T18:06:57.255Z,87.51
2022-10-18T18:09:27.389Z,87.77
2022-10-18T18:11:56.984Z,87.87
2022-10-18T18:14:29.367Z,88.25
2022-10-18T18:16:59.470Z,88.38
2022-10-18T18:19:29.129Z,88.64
2022-10-18T18:21:59.435Z,88.88
2022-10-18T18:24:30.001Z,89.18
2022-10-18T18:26:59.864Z,89.42
2022-10-18T18:29:32.473Z,89.53
2022-10-18T18:32:03.379Z,89.90
2022-10-18T18:34:32.981Z,89.92
2022-10-18T18:37:02.577Z,90.25
2022-10-18T18:39:35.684Z,90.34
2022-10-18T18:42:06.340Z,90.44
2022-10-18T18:44:38.575Z,90.82
2022-10-18T18:47:12.983Z,90.92
2022-10-18T18:49:43.020Z,91.07
2022-10-18T18:52:12.759Z,91.27
2022-10-18T18:54:42.357Z,91.49
2022-10-18T18:57:11.949Z,91.70
2022-10-18T18:59:44.126Z,92.04
2022-10-18T19:02:13.714Z,92.04
2022-10-18T19:04:43.953Z,92.02
2022-10-18T19:07:13.572Z,91.84
2022-10-18T19:09:44.711Z,91.92
2022-10-18T19:12:16.485Z,92.12
2022-10-18T19:14:51.202Z,92.38
2022-10-18T19:17:21.957Z,92.31
2022-10-18T19:19:52.545Z,92.47
2022-10-18T19:22:22.102Z,92.42
2022-10-18T19:24:51.648Z,92.58
2022-10-18T19:27:21.193Z,92.68
2022-10-18T19:29:53.326Z,92.86
2022-10-18T19:32:22.944Z,92.87
2022-10-18T19:34:52.813Z,93.00
2022-10-18T19:37:22.394Z,92.96
2022-10-18T19:39:51.917Z,92.68
2022-10-18T19:42:26.146Z,92.71
2022-10-18T19:44:59.612Z,92.64
2022-10-18T19:47:29.220Z,92.42
2022-10-18T19:49:59.210Z,92.55
2022-10-18T19:52:28.925Z,92.38
2022-10-18T19:54:58.616Z,92.25
2022-10-18T19:57:28.860Z,92.21
2022-10-18T20:00:01.543Z,92.16
2022-10-18T20:02:41.196Z,92.19
2022-10-18T20:05:11.501Z,92.32
2022-10-18T20:07:41.354Z,92.30
2022-10-18T20:10:11.445Z,92.61
2022-10-18T20:12:41.112Z,92.58
2022-10-18T20:15:14.557Z,92.63
2022-10-18T20:17:44.268Z,92.73
2022-10-18T20:20:14.664Z,92.95
2022-10-18T20:22:44.365Z,93.18
2022-10-18T20:25:13.942Z,93.44
2022-10-18T20:27:43.495Z,93.41
2022-10-18T20:30:15.833Z,93.61
2022-10-18T20:32:45.382Z,93.67
2022-10-18T20:35:14.889Z,93.57
2022-10-18T20:37:44.430Z,93.71
2022-10-18T20:40:14.926Z,93.73
2022-10-18T20:42:44.606Z,93.62
2022-10-18T20:45:16.703Z,93.59
2022-10-18T20:47:46.437Z,93.56
2022-10-18T20:50:15.978Z,93.25
2022-10-18T20:52:51.118Z,93.11
2022-10-18T20:55:20.732Z,92.98
2022-10-18T20:57:50.801Z,92.80
2022-10-18T21:00:22.995Z,92.47
2022-10-18T21:02:52.587Z,92.20
2022-10-18T21:05:22.109Z,91.86
2022-10-18T21:07:51.681Z,91.51
2022-10-18T21:10:21.316Z,91.03
2022-10-18T21:12:51.064Z,90.87
2022-10-18T21:15:24.280Z,90.33
2022-10-18T21:17:54.180Z,90.05
2022-10-18T21:20:23.725Z,89.82
2022-10-18T21:22:54.075Z,89.51
2022-10-18T21:25:23.605Z,89.30
2022-10-18T21:27:53.170Z,89.06
2022-10-18T21:30:25.421Z,89.03
2022-10-18T21:32:55.274Z,88.88
2022-10-18T21:35:24.816Z,88.61
2022-10-18T21:37:54.421Z,88.62
2022-10-18T21:40:23.961Z,88.46
2022-10-18T21:42:53.516Z,88.31
2022-10-18T21:45:25.634Z,88.23
2022-10-18T21:47:55.233Z,88.19
2022-10-18T21:50:24.797Z,88.12
2022-10-18T21:52:54.360Z,88.18
2022-10-18T21:55:23.881Z,88.09
2022-10-18T21:57:53.456Z,88.23
2022-10-18T22:00:25.603Z,88.36
2022-10-18T22:03:09.101Z,88.39
2022-10-18T22:05:38.712Z,88.46
2022-10-18T22:08:09.505Z,88.51
2022-10-18T22:10:39.149Z,88.60
2022-10-18T22:13:08.702Z,88.75
2022-10-18T22:15:40.861Z,88.87
2022-10-18T22:18:10.406Z,89.08
2022-10-18T22:20:39.957Z,89.06
2022-10-18T22:23:11.143Z,89.46
2022-10-18T22:25:40.684Z,89.64
2022-10-18T22:28:10.241Z,89.80
2022-10-18T22:30:42.407Z,90.06
2022-10-18T22:33:11.955Z,90.03
2022-10-18T22:35:41.989Z,90.33
2022-10-18T22:38:11.525Z,90.30
2022-10-18T22:40:41.024Z,90.33
2022-10-18T22:43:10.580Z,90.48
2022-10-18T22:45:43.992Z,90.69
2022-10-18T22:48:13.542Z,90.52
2022-10-18T22:50:43.085Z,90.78
2022-10-18T22:53:12.638Z,90.77
2022-10-18T22:55:42.169Z,90.86
2022-10-18T22:58:11.736Z,90.86
2022-10-18T23:00:43.886Z,91.19
2022-10-18T23:03:13.453Z,91.10
2022-10-18T23:05:43.883Z,91.17
2022-10-18T23:08:14.978Z,91.30
2022-10-18T23:10:45.485Z,91.46
2022-10-18T23:13:15.541Z,91.49
2022-10-18T23:15:47.701Z,91.64
2022-10-18T23:18:17.718Z,91.93
2022-10-18T23:20:47.486Z,91.83
2022-10-18T23:23:17.025Z,92.20
2022-10-18T23:25:48.654Z,92.15
2022-10-18T23:28:20.555Z,92.38
2022-10-18T23:30:52.729Z,92.32
2022-10-18T23:33:22.273Z,92.30
2022-10-18T23:35:51.829Z,92.65
2022-10-18T23:38:21.382Z,92.79
2022-10-18T23:40:50.926Z,92.81
2022-10-18T23:43:20.470Z,93.10
2022-10-18T23:45:53.081Z,93.09
2022-10-18T23:48:22.644Z,93.29
2022-10-18T23:50:52.254Z,93.56
2022-10-18T23:53:22.333Z,93.53
2022-10-18T23:55:55.296Z,93.35
2022-10-18T23:58:25.209Z,93.36
